Time;durP1;ratioP1;P1;durP2;ratioP2;P2;SDS_P1;SDS_P2;PMS_P1;PMS_P2;Temp;Humidity;BMP_temperature;BMP_pressure;BME280_temperature;BME280_humidity;BME280_pressure;Samples;Min_cycle;Max_cycle;Signal;HPM_P1;HPM_P2
2021/03/24 00:00:24;;;;;;;13.15;8.32;;;;;;;;;;5156340;27;20221;-69
2021/03/24 00:02:50;;;;;;;17.42;9.45;;;;;;;;;;5156454;27;20188;-70
2021/03/24 00:05:18;;;;;;;17.67;8.85;;;;;;;;;;5156209;27;20200;-70
2021/03/24 00:07:44;;;;;;;18.10;9.40;;;;;;;;;;5155875;27;20194;-68
2021/03/24 00:10:12;;;;;;;20.00;9.77;;;;;;;;;;5156335;27;20949;-69
2021/03/24 00:12:39;;;;;;;19.58;8.90;;;;;;;;;;5155961;27;20645;-71
2021/03/24 00:15:07;;;;;;;16.45;8.75;;;;;;;;;;5155504;27;20637;-70
2021/03/24 00:17:33;;;;;;;16.70;9.02;;;;;;;;;;5155895;27;20204;-68
2021/03/24 00:19:59;;;;;;;14.93;7.80;;;;;;;;;;5155958;27;20775;-69
2021/03/24 00:22:25;;;;;;;15.50;6.32;;;;;;;;;;5155513;27;20211;-70
2021/03/24 00:24:51;;;;;;;15.15;8.65;;;;;;;;;;5155406;27;20209;-70
2021/03/24 00:27:18;;;;;;;13.02;8.50;;;;;;;;;;5155238;27;20202;-70
2021/03/24 00:29:45;;;;;;;16.70;8.05;;;;;;;;;;5154507;27;20198;-70
2021/03/24 00:32:11;;;;;;;17.73;8.93;;;;;;;;;;5155676;27;20282;-69
2021/03/24 00:34:37;;;;;;;12.52;7.65;;;;;;;;;;5154972;27;20209;-69
2021/03/24 00:37:04;;;;;;;21.10;6.85;;;;;;;;;;5155001;27;20230;-69
2021/03/24 00:39:30;;;;;;;20.77;9.27;;;;;;;;;;5154989;27;20222;-71
2021/03/24 00:41:56;;;;;;;17.95;8.00;;;;;;;;;;5154851;27;20248;-71
2021/03/24 00:44:23;;;;;;;16.92;8.18;;;;;;;;;;5155542;27;20189;-70
2021/03/24 00:46:50;;;;;;;16.30;10.63;;;;;;;;;;5155451;27;20198;-69
2021/03/24 00:49:16;;;;;;;13.45;7.80;;;;;;;;;;5155369;27;20226;-69
2021/03/24 00:51:42;;;;;;;13.25;8.13;;;;;;;;;;5155849;27;20572;-68
2021/03/24 00:54:08;;;;;;;21.08;8.25;;;;;;;;;;5155407;27;20197;-70
2021/03/24 00:56:34;;;;;;;19.77;9.73;;;;;;;;;;5155736;27;20195;-70
2021/03/24 00:59:00;;;;;;;14.18;7.85;;;;;;;;;;5155731;27;20197;-70
2021/03/24 01:01:26;;;;;;;21.58;9.95;;;;;;;;;;5155666;27;20226;-69
2021/03/24 01:03:54;;;;;;;16.42;8.52;;;;;;;;;;5154970;27;20213;-70
2021/03/24 01:06:20;;;;;;;16.27;8.10;;;;;;;;;;5155260;27;20541;-71
2021/03/24 01:08:46;;;;;;;15.88;7.53;;;;;;;;;;5155244;27;20210;-69
2021/03/24 01:11:12;;;;;;;20.05;7.93;;;;;;;;;;5155619;27;20667;-70
2021/03/24 01:13:38;;;;;;;16.77;9.68;;;;;;;;;;5155152;27;20258;-70
2021/03/24 01:16:05;;;;;;;13.85;7.93;;;;;;;;;;5154708;27;20250;-70
2021/03/24 01:18:31;;;;;;;14.10;7.45;;;;;;;;;;5155370;27;20624;-68
2021/03/24 01:20:58;;;;;;;12.32;8.02;;;;;;;;;;5154851;27;20208;-69
2021/03/24 01:23:24;;;;;;;13.70;8.25;;;;;;;;;;5155132;27;20198;-69
2021/03/24 01:25:50;;;;;;;13.85;6.50;;;;;;;;;;5155046;27;20267;-69
2021/03/24 01:28:17;;;;;;;12.30;5.80;;;;;;;;;;5155030;27;20248;-69
2021/03/24 01:30:44;;;;;;;14.48;6.63;;;;;;;;;;5155075;27;20229;-68
2021/03/24 01:33:10;;;;;;;15.77;7.22;;;;;;;;;;5155489;27;20202;-70
2021/03/24 01:35:37;;;;;;;11.07;7.20;;;;;;;;;;5154273;27;20706;-69
2021/03/24 01:38:04;;;;;;;15.55;7.40;;;;;;;;;;5154768;27;20339;-68
2021/03/24 01:40:31;;;;;;;12.43;6.20;;;;;;;;;;5154503;27;20210;-69
2021/03/24 01:42:58;;;;;;;22.73;8.77;;;;;;;;;;5154564;27;20182;-68
2021/03/24 01:45:43;;;;;;;11.00;6.57;;;;;;;;;;5154541;27;20201;-67
2021/03/24 01:48:15;;;;;;;12.88;7.35;;;;;;;;;;5154930;27;20209;-67
2021/03/24 01:50:41;;;;;;;18.58;6.93;;;;;;;;;;5155176;27;20251;-69
2021/03/24 01:53:08;;;;;;;16.13;6.90;;;;;;;;;;5154624;27;20194;-69
2021/03/24 01:55:34;;;;;;;15.75;6.55;;;;;;;;;;5154618;27;20289;-69
2021/03/24 01:58:00;;;;;;;10.48;7.07;;;;;;;;;;5154782;27;20577;-69
2021/03/24 02:00:28;;;;;;;14.82;8.52;;;;;;;;;;5154606;27;20198;-68
2021/03/24 02:02:54;;;;;;;15.50;7.50;;;;;;;;;;5154221;27;20201;-69
2021/03/24 02:05:20;;;;;;;23.63;9.38;;;;;;;;;;5154910;27;20292;-70
2021/03/24 02:07:49;;;;;;;15.40;7.55;;;;;;;;;;5156794;27;20186;-69
2021/03/24 02:10:18;;;;;;;16.55;6.78;;;;;;;;;;5159037;27;20202;-68
2021/03/24 02:12:48;;;;;;;8.52;6.40;;;;;;;;;;5158299;27;20198;-69
2021/03/24 02:15:17;;;;;;;23.30;9.57;;;;;;;;;;5157641;27;20209;-69
2021/03/24 02:17:44;;;;;;;14.45;6.53;;;;;;;;;;5137266;27;20195;-71
2021/03/24 02:20:13;;;;;;;12.88;7.53;;;;;;;;;;5137682;27;20218;-69
2021/03/24 02:22:41;;;;;;;14.77;6.80;;;;;;;;;;5137376;27;20206;-70
2021/03/24 02:25:09;;;;;;;13.15;5.95;;;;;;;;;;5137287;27;20189;-69
2021/03/24 02:27:37;;;;;;;16.73;6.78;;;;;;;;;;5137130;27;20198;-69
2021/03/24 02:30:06;;;;;;;11.85;6.90;;;;;;;;;;5137363;27;20210;-69
2021/03/24 02:32:34;;;;;;;15.07;7.10;;;;;;;;;;5138154;27;20640;-70
2021/03/24 02:35:02;;;;;;;16.60;8.10;;;;;;;;;;5158422;27;20205;-70
2021/03/24 02:37:30;;;;;;;13.88;7.85;;;;;;;;;;5157819;27;20207;-67
2021/03/24 02:39:56;;;;;;;18.88;7.82;;;;;;;;;;5157992;27;20210;-68
2021/03/24 02:42:23;;;;;;;11.30;7.18;;;;;;;;;;5158207;27;20207;-69
2021/03/24 02:44:50;;;;;;;14.48;7.53;;;;;;;;;;5157778;27;20206;-68
2021/03/24 02:47:16;;;;;;;13.52;5.97;;;;;;;;;;5157960;27;20198;-69
2021/03/24 02:49:43;;;;;;;14.32;7.55;;;;;;;;;;5157538;27;20183;-69
2021/03/24 02:52:10;;;;;;;16.10;6.93;;;;;;;;;;5157892;27;20620;-69
2021/03/24 02:54:36;;;;;;;16.75;7.57;;;;;;;;;;5156948;27;20204;-70
2021/03/24 02:57:02;;;;;;;11.90;7.55;;;;;;;;;;5158051;27;20567;-70
2021/03/24 02:59:28;;;;;;;17.63;7.35;;;;;;;;;;5157855;27;20205;-69
2021/03/24 03:01:58;;;;;;;18.67;8.25;;;;;;;;;;5157274;27;20190;-69
2021/03/24 03:04:26;;;;;;;18.80;7.60;;;;;;;;;;5157662;27;20182;-70
2021/03/24 03:06:54;;;;;;;18.13;8.63;;;;;;;;;;5157573;27;20201;-69
2021/03/24 03:09:23;;;;;;;16.58;8.27;;;;;;;;;;5157088;27;20197;-69
2021/03/24 03:11:52;;;;;;;22.33;8.80;;;;;;;;;;5157855;27;20193;-75
2021/03/24 03:14:23;;;;;;;16.38;7.57;;;;;;;;;;5156537;27;20194;-70
2021/03/24 03:16:52;;;;;;;17.98;8.10;;;;;;;;;;5156902;27;20190;-68
2021/03/24 03:19:21;;;;;;;14.80;8.40;;;;;;;;;;5156713;27;20191;-71
2021/03/24 03:21:50;;;;;;;14.15;7.13;;;;;;;;;;5157037;27;20202;-70
2021/03/24 03:24:16;;;;;;;13.55;7.35;;;;;;;;;;5157480;27;20178;-69
2021/03/24 03:26:43;;;;;;;14.38;8.50;;;;;;;;;;5157065;27;20201;-69
2021/03/24 03:29:10;;;;;;;17.38;6.82;;;;;;;;;;5157443;27;20206;-68
2021/03/24 03:31:38;;;;;;;14.52;7.88;;;;;;;;;;5157057;27;20182;-70
2021/03/24 03:34:05;;;;;;;16.05;7.53;;;;;;;;;;5157144;27;20542;-69
2021/03/24 03:36:33;;;;;;;17.33;7.35;;;;;;;;;;5156773;27;20234;-68
2021/03/24 03:39:00;;;;;;;12.65;7.47;;;;;;;;;;5156843;27;20186;-70
2021/03/24 03:41:27;;;;;;;18.83;7.63;;;;;;;;;;5156956;27;20331;-70
2021/03/24 03:43:54;;;;;;;20.17;7.40;;;;;;;;;;5156818;27;20193;-69
2021/03/24 03:46:23;;;;;;;15.52;8.00;;;;;;;;;;5156554;27;20278;-69
2021/03/24 03:48:49;;;;;;;12.65;7.15;;;;;;;;;;5156038;27;20194;-71
2021/03/24 03:51:19;;;;;;;10.02;6.03;;;;;;;;;;5156611;27;20190;-70
2021/03/24 03:53:50;;;;;;;12.30;6.90;;;;;;;;;;5156424;27;20588;-69
2021/03/24 03:56:19;;;;;;;14.88;7.80;;;;;;;;;;5156816;27;20209;-70
2021/03/24 03:58:48;;;;;;;12.10;6.65;;;;;;;;;;5156330;27;20201;-69
2021/03/24 04:01:16;;;;;;;13.90;8.35;;;;;;;;;;5156242;27;20208;-70
2021/03/24 04:03:46;;;;;;;15.27;7.22;;;;;;;;;;5156091;27;20194;-69
2021/03/24 04:06:14;;;;;;;12.35;6.10;;;;;;;;;;5156747;27;20266;-68
2021/03/24 04:08:40;;;;;;;15.18;6.60;;;;;;;;;;5156150;27;20226;-71
2021/03/24 04:11:08;;;;;;;12.95;6.65;;;;;;;;;;5156564;27;20280;-71
2021/03/24 04:13:35;;;;;;;15.10;8.23;;;;;;;;;;5155650;27;20186;-71
2021/03/24 04:16:01;;;;;;;21.58;7.82;;;;;;;;;;5156445;27;20198;-68
2021/03/24 04:18:31;;;;;;;14.70;7.13;;;;;;;;;;5155413;27;20194;-70
2021/03/24 04:20:57;;;;;;;12.30;7.05;;;;;;;;;;5156296;27;20260;-70
2021/03/24 04:23:26;;;;;;;13.00;7.47;;;;;;;;;;5155587;27;20223;-70
2021/03/24 04:25:54;;;;;;;12.75;6.15;;;;;;;;;;5155521;27;20198;-70
2021/03/24 04:28:22;;;;;;;15.13;8.07;;;;;;;;;;5155617;27;20197;-70
2021/03/24 04:30:50;;;;;;;20.73;9.30;;;;;;;;;;5155534;27;20226;-69
2021/03/24 04:33:16;;;;;;;13.45;8.75;;;;;;;;;;5155874;27;20182;-70
2021/03/24 04:35:42;;;;;;;18.83;9.93;;;;;;;;;;5155225;27;20309;-70
2021/03/24 04:38:18;;;;;;;17.85;8.32;;;;;;;;;;5156050;27;20285;-68
2021/03/24 04:40:47;;;;;;;14.68;6.13;;;;;;;;;;5155852;27;20248;-68
2021/03/24 04:43:15;;;;;;;19.58;8.10;;;;;;;;;;5156323;27;20218;-69
2021/03/24 04:45:44;;;;;;;18.00;7.60;;;;;;;;;;5155415;27;20616;-69
2021/03/24 04:48:13;;;;;;;10.10;5.88;;;;;;;;;;5155488;27;20182;-70
2021/03/24 04:50:40;;;;;;;17.80;7.70;;;;;;;;;;5155602;27;20527;-70
2021/03/24 04:53:07;;;;;;;18.50;6.85;;;;;;;;;;5155268;27;20219;-68
2021/03/24 04:55:33;;;;;;;12.82;6.75;;;;;;;;;;5155077;27;20202;-69
2021/03/24 04:58:01;;;;;;;12.20;7.13;;;;;;;;;;5155834;27;20651;-70
2021/03/24 05:00:31;;;;;;;20.33;8.50;;;;;;;;;;5155171;27;20213;-71
2021/03/24 05:03:01;;;;;;;18.33;10.98;;;;;;;;;;5155002;27;20546;-72
2021/03/24 05:05:28;;;;;;;21.35;9.82;;;;;;;;;;5155132;27;20182;-70
2021/03/24 05:07:57;;;;;;;20.63;8.65;;;;;;;;;;5155071;27;20200;-69
2021/03/24 05:10:25;;;;;;;13.63;7.72;;;;;;;;;;5154699;27;20205;-70
2021/03/24 05:12:54;;;;;;;13.95;8.30;;;;;;;;;;5155105;27;20201;-70
2021/03/24 05:15:22;;;;;;;22.13;7.97;;;;;;;;;;5154317;27;20193;-70
2021/03/24 05:17:48;;;;;;;11.90;8.43;;;;;;;;;;5155027;27;20513;-70
2021/03/24 05:20:20;;;;;;;18.40;10.65;;;;;;;;;;5154779;27;20228;-69
2021/03/24 05:22:46;;;;;;;18.45;7.35;;;;;;;;;;5155012;27;20209;-70
2021/03/24 05:25:17;;;;;;;11.25;6.72;;;;;;;;;;5155083;27;20554;-70
2021/03/24 05:27:45;;;;;;;19.08;7.57;;;;;;;;;;5155010;27;20583;-69
2021/03/24 05:30:16;;;;;;;10.70;6.70;;;;;;;;;;5154949;27;20194;-70
2021/03/24 05:32:43;;;;;;;13.77;8.27;;;;;;;;;;5154623;27;20273;-70
2021/03/24 05:35:23;;;;;;;24.05;7.82;;;;;;;;;;5154327;27;20277;-69
2021/03/24 05:37:50;;;;;;;13.77;8.23;;;;;;;;;;5154159;27;20201;-69
2021/03/24 05:40:28;;;;;;;11.13;7.05;;;;;;;;;;5154361;27;20260;-69
2021/03/24 05:42:59;;;;;;;20.40;8.13;;;;;;;;;;5156910;27;20194;-70
2021/03/24 05:45:31;;;;;;;13.60;7.60;;;;;;;;;;5158632;27;20213;-71
2021/03/24 05:48:12;;;;;;;12.32;7.93;;;;;;;;;;5158812;27;20205;-69
2021/03/24 05:50:46;;;;;;;11.05;6.68;;;;;;;;;;5158086;27;20687;-70
2021/03/24 05:53:19;;;;;;;13.63;6.82;;;;;;;;;;5158143;27;20276;-70
2021/03/24 05:55:48;;;;;;;13.82;6.80;;;;;;;;;;5158327;27;20228;-69
2021/03/24 05:58:20;;;;;;;27.50;8.82;;;;;;;;;;5158053;27;20183;-69
2021/03/24 06:00:48;;;;;;;14.07;7.57;;;;;;;;;;5157799;27;20283;-69
2021/03/24 06:03:21;;;;;;;16.65;9.50;;;;;;;;;;5158442;27;20186;-69
2021/03/24 06:06:00;;;;;;;13.60;8.30;;;;;;;;;;5158264;27;20182;-70
2021/03/24 06:08:38;;;;;;;14.18;7.28;;;;;;;;;;5157903;27;20269;-68
2021/03/24 06:11:22;;;;;;;14.57;8.52;;;;;;;;;;5157880;27;20178;-70
2021/03/24 06:14:06;;;;;;;23.23;10.25;;;;;;;;;;5157883;27;20281;-68
2021/03/24 06:16:50;;;;;;;17.30;9.07;;;;;;;;;;5157963;27;20208;-70
2021/03/24 06:19:25;;;;;;;22.08;11.18;;;;;;;;;;5157141;27;20209;-68
2021/03/24 06:21:57;;;;;;;17.58;9.00;;;;;;;;;;5157621;27;20201;-70
2021/03/24 06:24:32;;;;;;;15.88;7.80;;;;;;;;;;5157820;27;20178;-70
2021/03/24 06:27:04;;;;;;;17.50;9.02;;;;;;;;;;5157064;27;20185;-69
2021/03/24 06:29:40;;;;;;;15.60;7.95;;;;;;;;;;5142947;27;20226;-68
2021/03/24 06:32:21;;;;;;;15.73;8.82;;;;;;;;;;5157296;27;20181;-68
2021/03/24 06:35:08;;;;;;;16.23;8.85;;;;;;;;;;5156938;27;20203;-69
2021/03/24 06:37:52;;;;;;;12.18;7.50;;;;;;;;;;5153425;27;20202;-68
2021/03/24 06:40:42;;;;;;;17.27;8.20;;;;;;;;;;5146977;27;20206;-69
2021/03/24 06:43:29;;;;;;;21.58;8.90;;;;;;;;;;5130143;27;20563;-68
2021/03/24 06:46:03;;;;;;;20.55;10.00;;;;;;;;;;5147269;27;20643;-69
2021/03/24 06:48:38;;;;;;;20.98;10.15;;;;;;;;;;5155781;27;20636;-70
2021/03/24 06:51:16;;;;;;;15.68;8.63;;;;;;;;;;5155595;27;20294;-69
2021/03/24 06:53:55;;;;;;;20.98;10.35;;;;;;;;;;5155536;27;20646;-70
2021/03/24 06:56:36;;;;;;;20.83;10.55;;;;;;;;;;5142828;27;20224;-68
2021/03/24 06:59:19;;;;;;;17.95;10.23;;;;;;;;;;5155712;27;20642;-69
2021/03/24 07:02:01;;;;;;;25.73;10.18;;;;;;;;;;5155718;27;21065;-68
2021/03/24 07:04:54;;;;;;;17.67;9.70;;;;;;;;;;5155376;27;20178;-69
2021/03/24 07:07:43;;;;;;;26.48;11.13;;;;;;;;;;5155690;27;20202;-70
2021/03/24 07:10:16;;;;;;;15.90;8.50;;;;;;;;;;5155095;27;20576;-69
2021/03/24 07:12:52;;;;;;;21.98;10.50;;;;;;;;;;5154995;27;20194;-70
2021/03/24 07:15:27;;;;;;;25.65;11.77;;;;;;;;;;5155468;27;20203;-69
2021/03/24 07:18:11;;;;;;;20.70;11.27;;;;;;;;;;5155082;27;20310;-71
2021/03/24 07:20:56;;;;;;;29.85;10.63;;;;;;;;;;5154976;27;20307;-69
2021/03/24 07:23:52;;;;;;;17.05;10.25;;;;;;;;;;5155248;27;20274;-70
2021/03/24 07:26:23;;;;;;;17.30;10.73;;;;;;;;;;5155572;27;20579;-71
2021/03/24 07:28:55;;;;;;;16.35;9.20;;;;;;;;;;5155059;27;20199;-70
2021/03/24 07:31:30;;;;;;;30.48;12.32;;;;;;;;;;5155194;27;20216;-69
2021/03/24 07:33:59;;;;;;;25.08;11.45;;;;;;;;;;5154935;27;20199;-70
2021/03/24 07:36:32;;;;;;;20.07;10.07;;;;;;;;;;5129853;27;724948;-70
2021/03/24 07:39:29;;;;;;;53.45;27.60;;;;;;;;;;5156200;27;20856;-70
2021/03/24 07:42:13;;;;;;;30.33;14.57;;;;;;;;;;5135354;27;20641;-69
2021/03/24 07:44:57;;;;;;;20.92;11.57;;;;;;;;;;5155265;27;20666;-71
2021/03/24 07:47:30;;;;;;;20.63;11.27;;;;;;;;;;5153553;27;20197;-68
2021/03/24 07:50:05;;;;;;;26.73;13.60;;;;;;;;;;5155955;27;20186;-70
2021/03/24 07:52:50;;;;;;;25.80;12.95;;;;;;;;;;5148070;27;20198;-69
2021/03/24 07:55:18;;;;;;;30.48;11.43;;;;;;;;;;5135561;27;20558;-69
2021/03/24 07:57:49;;;;;;;21.45;12.57;;;;;;;;;;5147212;27;20185;-70
2021/03/24 08:00:19;;;;;;;26.75;13.60;;;;;;;;;;5153220;27;20556;-69
2021/03/24 08:02:59;;;;;;;21.85;12.80;;;;;;;;;;5150463;27;20194;-69
2021/03/24 08:05:43;;;;;;;18.63;10.20;;;;;;;;;;5152411;27;20206;-70
2021/03/24 08:08:11;;;;;;;24.80;11.75;;;;;;;;;;5154354;27;20206;-72
2021/03/24 08:10:41;;;;;;;36.00;16.33;;;;;;;;;;5136041;27;20216;-69
2021/03/24 08:13:28;;;;;;;25.58;12.15;;;;;;;;;;5146258;27;20198;-70
2021/03/24 08:16:08;;;;;;;24.15;13.68;;;;;;;;;;5153689;27;20299;-70
2021/03/24 08:18:42;;;;;;;18.33;11.10;;;;;;;;;;5155714;27;20640;-70
2021/03/24 08:21:13;;;;;;;20.58;11.45;;;;;;;;;;5143168;27;20237;-69
2021/03/24 08:24:03;;;;;;;19.25;11.27;;;;;;;;;;5134905;27;20648;-70
2021/03/24 08:26:31;;;;;;;32.05;13.35;;;;;;;;;;5134437;27;20190;-70
2021/03/24 08:29:00;;;;;;;20.77;12.65;;;;;;;;;;5134803;27;20620;-70
2021/03/24 08:31:48;;;;;;;19.38;11.13;;;;;;;;;;5134415;27;20206;-70
2021/03/24 08:34:20;;;;;;;26.30;12.10;;;;;;;;;;5147455;27;20195;-70
2021/03/24 08:37:10;;;;;;;34.38;12.98;;;;;;;;;;5133640;27;20726;-69
2021/03/24 08:39:52;;;;;;;18.42;9.80;;;;;;;;;;5127744;27;20193;-69
2021/03/24 08:42:33;;;;;;;20.42;10.10;;;;;;;;;;5154534;27;20193;-69
2021/03/24 08:45:01;;;;;;;15.15;9.05;;;;;;;;;;5154644;27;20230;-68
2021/03/24 08:47:29;;;;;;;20.00;10.55;;;;;;;;;;5155188;27;20194;-72
2021/03/24 08:49:56;;;;;;;20.02;10.38;;;;;;;;;;5154830;27;20291;-70
2021/03/24 08:52:31;;;;;;;19.60;9.95;;;;;;;;;;5154478;27;20208;-69
2021/03/24 08:55:02;;;;;;;20.90;9.50;;;;;;;;;;5154381;27;20189;-71
2021/03/24 08:57:58;;;;;;;19.20;10.18;;;;;;;;;;5155086;27;20202;-70
2021/03/24 09:00:30;;;;;;;19.85;9.95;;;;;;;;;;5148872;27;20208;-71
2021/03/24 09:03:08;;;;;;;20.05;11.18;;;;;;;;;;5134131;27;20200;-70
2021/03/24 09:05:37;;;;;;;22.48;10.60;;;;;;;;;;5135747;27;20207;-70
2021/03/24 09:08:10;;;;;;;19.33;8.68;;;;;;;;;;5135571;27;20228;-70
2021/03/24 09:10:49;;;;;;;18.23;9.02;;;;;;;;;;5144281;27;20626;-71
2021/03/24 09:13:18;;;;;;;20.23;8.80;;;;;;;;;;5134952;27;20278;-70
2021/03/24 09:15:51;;;;;;;20.70;8.80;;;;;;;;;;5140489;27;20279;-69
2021/03/24 09:18:20;;;;;;;11.65;7.50;;;;;;;;;;5152589;27;20926;-69
2021/03/24 09:21:10;;;;;;;16.92;8.32;;;;;;;;;;5134263;27;20229;-70
2021/03/24 09:23:55;;;;;;;16.45;8.73;;;;;;;;;;5133914;27;20190;-70
2021/03/24 09:26:35;;;;;;;19.02;9.10;;;;;;;;;;5133450;27;20205;-68
2021/03/24 09:29:13;;;;;;;15.20;7.97;;;;;;;;;;5088967;27;20759;-71
2021/03/24 09:31:51;;;;;;;15.75;7.28;;;;;;;;;;5133841;28;20250;-69
2021/03/24 09:34:22;;;;;;;20.55;8.52;;;;;;;;;;5133758;27;20201;-70
2021/03/24 09:36:52;;;;;;;20.95;9.10;;;;;;;;;;5133280;28;20234;-70
2021/03/24 09:39:21;;;;;;;14.82;7.65;;;;;;;;;;5134144;28;20628;-70
2021/03/24 09:41:49;;;;;;;20.80;8.63;;;;;;;;;;5133821;28;20313;-70
2021/03/24 09:44:19;;;;;;;14.30;8.27;;;;;;;;;;5133514;28;20197;-70
2021/03/24 09:46:46;;;;;;;12.40;7.20;;;;;;;;;;5141787;27;20187;-69
2021/03/24 09:49:16;;;;;;;18.83;8.77;;;;;;;;;;5133337;28;20247;-70
2021/03/24 09:51:45;;;;;;;16.08;8.43;;;;;;;;;;5133395;28;20200;-71
2021/03/24 09:54:19;;;;;;;18.40;8.70;;;;;;;;;;5133626;28;20265;-71
2021/03/24 09:56:54;;;;;;;17.73;9.18;;;;;;;;;;5133485;27;20545;-69
2021/03/24 09:59:25;;;;;;;15.32;8.80;;;;;;;;;;5133193;28;20243;-71
2021/03/24 10:02:01;;;;;;;11.95;6.97;;;;;;;;;;5133860;27;20206;-68
2021/03/24 10:04:44;;;;;;;16.67;9.23;;;;;;;;;;5133256;28;20175;-70
2021/03/24 10:07:15;;;;;;;13.60;8.85;;;;;;;;;;5119450;28;20245;-70
2021/03/24 10:09:44;;;;;;;16.13;7.85;;;;;;;;;;5133784;27;20558;-70
2021/03/24 10:12:16;;;;;;;13.80;7.60;;;;;;;;;;5142182;27;20194;-70
2021/03/24 10:14:46;;;;;;;17.77;8.65;;;;;;;;;;5153914;27;20353;-70
2021/03/24 10:17:17;;;;;;;17.98;9.60;;;;;;;;;;5153621;27;20198;-70
2021/03/24 10:19:45;;;;;;;13.90;8.60;;;;;;;;;;5153562;27;20198;-70
2021/03/24 10:22:15;;;;;;;19.80;8.70;;;;;;;;;;5152040;27;20285;-69
2021/03/24 10:24:43;;;;;;;15.07;8.27;;;;;;;;;;5154083;27;20244;-70
2021/03/24 10:27:11;;;;;;;25.55;8.50;;;;;;;;;;5154084;27;20283;-71
2021/03/24 10:29:40;;;;;;;21.83;8.80;;;;;;;;;;5156951;27;20244;-70
2021/03/24 10:32:08;;;;;;;22.63;8.18;;;;;;;;;;5157781;27;20254;-71
2021/03/24 10:34:36;;;;;;;19.27;8.70;;;;;;;;;;5157906;27;20581;-69
2021/03/24 10:37:07;;;;;;;15.02;8.30;;;;;;;;;;5157637;27;20233;-70
2021/03/24 10:39:35;;;;;;;16.33;9.80;;;;;;;;;;5156864;27;20194;-70
2021/03/24 10:42:06;;;;;;;14.63;8.80;;;;;;;;;;5156971;27;20219;-70
2021/03/24 10:44:40;;;;;;;15.15;7.97;;;;;;;;;;5136372;27;20269;-70
2021/03/24 10:47:24;;;;;;;19.67;7.43;;;;;;;;;;5136074;27;20213;-70
2021/03/24 10:49:55;;;;;;;19.50;8.18;;;;;;;;;;5122469;27;20196;-71
2021/03/24 10:52:22;;;;;;;18.83;8.63;;;;;;;;;;5151061;27;20530;-71
2021/03/24 10:54:55;;;;;;;16.08;8.60;;;;;;;;;;5150776;27;20191;-72
2021/03/24 10:57:31;;;;;;;16.40;8.85;;;;;;;;;;5136110;27;20203;-70
2021/03/24 11:00:02;;;;;;;16.10;7.53;;;;;;;;;;5136287;27;20293;-70
2021/03/24 11:02:30;;;;;;;14.77;7.53;;;;;;;;;;5136039;27;20226;-72
2021/03/24 11:05:01;;;;;;;20.58;8.93;;;;;;;;;;5136367;27;20619;-72
2021/03/24 11:07:33;;;;;;;18.13;6.63;;;;;;;;;;5135922;27;20184;-72
2021/03/24 11:10:01;;;;;;;12.05;7.35;;;;;;;;;;5136299;27;20199;-71
2021/03/24 11:12:34;;;;;;;13.90;8.38;;;;;;;;;;5136297;27;20654;-71
2021/03/24 11:15:02;;;;;;;14.15;6.68;;;;;;;;;;5135859;27;20200;-71
2021/03/24 11:17:32;;;;;;;19.75;8.10;;;;;;;;;;5135502;27;20211;-72
2021/03/24 11:20:01;;;;;;;15.63;6.95;;;;;;;;;;5139420;27;20199;-70
2021/03/24 11:22:30;;;;;;;18.15;7.68;;;;;;;;;;5136112;27;20232;-71
2021/03/24 11:25:00;;;;;;;20.80;10.10;;;;;;;;;;5135773;27;20200;-73
2021/03/24 11:27:29;;;;;;;12.98;8.25;;;;;;;;;;5141351;27;20193;-69
2021/03/24 11:29:59;;;;;;;15.38;7.30;;;;;;;;;;5148764;27;20201;-74
2021/03/24 11:32:34;;;;;;;12.93;7.57;;;;;;;;;;5156318;27;20198;-72
2021/03/24 11:35:06;;;;;;;17.23;7.70;;;;;;;;;;5156523;27;20198;-70
2021/03/24 11:37:42;;;;;;;16.65;7.63;;;;;;;;;;5156705;27;20191;-71
2021/03/24 11:40:18;;;;;;;19.08;9.30;;;;;;;;;;5155074;27;20203;-71
2021/03/24 11:42:51;;;;;;;18.48;8.15;;;;;;;;;;5156011;27;20645;-71
2021/03/24 11:45:19;;;;;;;19.40;7.78;;;;;;;;;;5155859;27;20207;-69
2021/03/24 11:47:51;;;;;;;13.25;7.60;;;;;;;;;;5143093;27;20196;-71
2021/03/24 11:50:25;;;;;;;14.20;6.90;;;;;;;;;;5156115;27;20297;-71
2021/03/24 11:52:57;;;;;;;15.05;7.28;;;;;;;;;;5155778;27;20191;-72
2021/03/24 11:55:35;;;;;;;15.20;7.30;;;;;;;;;;5155911;27;20216;-72
2021/03/24 11:58:07;;;;;;;15.23;7.20;;;;;;;;;;5155997;27;20191;-70
2021/03/24 12:00:38;;;;;;;13.50;6.40;;;;;;;;;;5155889;27;20215;-72
2021/03/24 12:03:11;;;;;;;14.60;7.97;;;;;;;;;;5156455;27;20557;-71
2021/03/24 12:05:41;;;;;;;14.00;7.30;;;;;;;;;;5156532;27;20552;-71
2021/03/24 12:08:25;;;;;;;18.45;7.57;;;;;;;;;;5156519;27;20705;-70
2021/03/24 12:10:59;;;;;;;18.40;8.70;;;;;;;;;;5155905;27;20287;-70
2021/03/24 12:13:28;;;;;;;15.13;7.90;;;;;;;;;;5155719;27;20207;-70
2021/03/24 12:15:59;;;;;;;14.38;7.00;;;;;;;;;;5155285;27;20201;-70
2021/03/24 12:18:25;;;;;;;21.48;7.60;;;;;;;;;;5155663;27;20189;-68
2021/03/24 12:20:54;;;;;;;13.95;7.78;;;;;;;;;;5154455;27;20253;-70
2021/03/24 12:23:21;;;;;;;14.02;6.78;;;;;;;;;;5154886;27;20200;-71
2021/03/24 12:25:48;;;;;;;13.13;6.78;;;;;;;;;;5148127;27;20207;-69
2021/03/24 12:28:23;;;;;;;18.70;8.98;;;;;;;;;;5137362;27;20554;-70
2021/03/24 12:30:50;;;;;;;13.20;7.13;;;;;;;;;;5134609;27;20263;-70
2021/03/24 12:33:22;;;;;;;14.98;6.72;;;;;;;;;;5135929;27;20564;-72
2021/03/24 12:35:50;;;;;;;14.43;7.10;;;;;;;;;;5155291;27;20226;-71
2021/03/24 12:38:18;;;;;;;10.40;6.40;;;;;;;;;;5144412;27;20281;-71
2021/03/24 12:40:48;;;;;;;19.08;7.25;;;;;;;;;;5147052;27;20269;-70
2021/03/24 12:43:18;;;;;;;12.93;6.30;;;;;;;;;;5150049;27;20636;-71
2021/03/24 12:45:45;;;;;;;13.38;7.30;;;;;;;;;;5145317;27;20193;-70
2021/03/24 12:48:12;;;;;;;11.30;6.15;;;;;;;;;;5155279;27;20180;-69
2021/03/24 12:50:41;;;;;;;14.68;6.20;;;;;;;;;;5154772;27;20717;-69
2021/03/24 12:53:13;;;;;;;10.52;5.57;;;;;;;;;;5154881;27;20220;-70
2021/03/24 12:55:40;;;;;;;18.30;7.28;;;;;;;;;;5155339;27;20201;-71
2021/03/24 12:58:15;;;;;;;13.13;7.05;;;;;;;;;;5154158;27;20256;-70
2021/03/24 13:00:46;;;;;;;10.82;5.95;;;;;;;;;;5154389;27;20723;-71
2021/03/24 13:03:27;;;;;;;10.23;5.47;;;;;;;;;;5154886;27;20658;-69
2021/03/24 13:06:00;;;;;;;13.38;5.93;;;;;;;;;;5133000;27;20253;-70
2021/03/24 13:08:31;;;;;;;13.15;6.28;;;;;;;;;;5154472;27;20256;-71
2021/03/24 13:11:03;;;;;;;12.30;6.68;;;;;;;;;;5155306;27;20178;-70
2021/03/24 13:13:39;;;;;;;14.00;6.82;;;;;;;;;;5146540;27;20198;-70
2021/03/24 13:16:06;;;;;;;7.88;5.47;;;;;;;;;;5154090;27;20208;-73
2021/03/24 13:18:35;;;;;;;11.48;5.45;;;;;;;;;;5154283;27;20299;-71
2021/03/24 13:21:20;;;;;;;9.73;5.50;;;;;;;;;;5153781;27;20202;-72
2021/03/24 13:23:51;;;;;;;12.02;6.00;;;;;;;;;;5141052;27;20190;-70
2021/03/24 13:26:21;;;;;;;13.82;5.82;;;;;;;;;;5133448;27;20672;-72
2021/03/24 13:28:49;;;;;;;10.68;5.50;;;;;;;;;;5133579;27;20202;-70
2021/03/24 13:31:20;;;;;;;13.88;6.07;;;;;;;;;;5136749;27;20266;-71
2021/03/24 13:33:51;;;;;;;13.13;6.13;;;;;;;;;;5154037;27;20305;-71
2021/03/24 13:36:22;;;;;;;13.50;5.32;;;;;;;;;;5153744;27;20249;-71
2021/03/24 13:38:49;;;;;;;15.70;6.00;;;;;;;;;;5154247;27;20267;-70
2021/03/24 13:41:16;;;;;;;11.05;5.38;;;;;;;;;;5153696;27;20403;-70
2021/03/24 13:43:47;;;;;;;16.42;6.38;;;;;;;;;;5153439;27;20193;-71
2021/03/24 13:46:17;;;;;;;57.38;38.15;;;;;;;;;;5154265;27;20628;-70
2021/03/24 13:48:45;;;;;;;18.10;8.27;;;;;;;;;;5153800;27;20208;-73
2021/03/24 13:51:14;;;;;;;11.05;6.57;;;;;;;;;;5154141;27;20880;-71
2021/03/24 13:53:46;;;;;;;14.07;6.35;;;;;;;;;;5153755;27;20200;-71
2021/03/24 13:56:15;;;;;;;12.77;6.25;;;;;;;;;;5153508;27;20202;-71
2021/03/24 13:58:59;;;;;;;14.40;7.40;;;;;;;;;;5153231;27;20301;-69
2021/03/24 14:01:30;;;;;;;9.10;4.60;;;;;;;;;;5153898;27;20986;-72
2021/03/24 14:04:00;;;;;;;11.50;5.00;;;;;;;;;;5156018;27;20466;-70
2021/03/24 14:06:42;;;;;;;8.90;4.90;;;;;;;;;;5139770;27;20478;-71
2021/03/24 14:09:11;;;;;;;8.70;5.03;;;;;;;;;;5136566;27;20531;-69
2021/03/24 14:11:46;;;;;;;9.27;4.47;;;;;;;;;;5137123;27;20882;-71
2021/03/24 14:14:29;;;;;;;10.97;4.57;;;;;;;;;;5136608;27;20436;-71
2021/03/24 14:16:59;;;;;;;8.70;4.70;;;;;;;;;;5141841;27;20446;-70
2021/03/24 14:19:29;;;;;;;11.70;5.13;;;;;;;;;;5157849;27;20904;-71
2021/03/24 14:22:00;;;;;;;13.53;4.67;;;;;;;;;;5157360;27;20778;-71
2021/03/24 14:24:42;;;;;;;10.40;5.43;;;;;;;;;;5157120;27;20435;-71
2021/03/24 14:27:14;;;;;;;9.60;5.20;;;;;;;;;;5157363;27;20919;-72
2021/03/24 14:29:44;;;;;;;14.50;4.63;;;;;;;;;;5156332;27;20431;-71
2021/03/24 14:32:20;;;;;;;11.83;5.37;;;;;;;;;;5156866;27;20442;-70
2021/03/24 14:34:52;;;;;;;17.83;5.63;;;;;;;;;;5157873;27;20491;-72
2021/03/24 14:37:25;;;;;;;14.87;5.70;;;;;;;;;;5148732;27;20524;-71
2021/03/24 14:39:58;;;;;;;12.33;5.43;;;;;;;;;;5136210;27;20443;-70
2021/03/24 14:42:28;;;;;;;11.50;4.90;;;;;;;;;;5135945;27;20475;-70
2021/03/24 14:45:12;;;;;;;14.53;5.60;;;;;;;;;;5136009;27;20448;-70
2021/03/24 14:47:46;;;;;;;10.00;5.90;;;;;;;;;;5135860;27;20539;-71
2021/03/24 14:50:23;;;;;;;10.87;5.67;;;;;;;;;;5136504;27;20884;-71
2021/03/24 14:53:22;;;;;;;11.63;6.00;;;;;;;;;;5147645;27;20924;-71